sensor_id;sensor_type;location;lat;lon;timestamp;temperature;humidity
20744;DHT22;56303;52.160;-0.428;2022-11-20T00:01:15;8.30;99.90
20744;DHT22;56303;52.160;-0.428;2022-11-20T00:03:43;8.40;99.90
20744;DHT22;56303;52.160;-0.428;2022-11-20T00:06:15;8.40;99.90
20744;DHT22;56303;52.160;-0.428;2022-11-20T00:08:43;8.50;99.90
20744;DHT22;56303;52.160;-0.428;2022-11-20T00:11:15;8.40;99.90
20744;DHT22;56303;52.160;-0.428;2022-11-20T00:13:47;8.40;99.90
20744;DHT22;56303;52.160;-0.428;2022-11-20T00:16:16;8.10;99.90
20744;DHT22;56303;52.160;-0.428;2022-11-20T00:18:44;7.90;99.90
20744;DHT22;56303;52.160;-0.428;2022-11-20T00:21:13;7.80;99.90
20744;DHT22;56303;52.160;-0.428;2022-11-20T00:23:40;7.60;99.90
20744;DHT22;56303;52.160;-0.428;2022-11-20T00:26:10;7.40;99.90
20744;DHT22;56303;52.160;-0.428;2022-11-20T00:28:37;7.40;99.90
20744;DHT22;56303;52.160;-0.428;2022-11-20T00:31:10;7.30;99.90
20744;DHT22;56303;52.160;-0.428;2022-11-20T00:33:38;7.30;99.90
20744;DHT22;56303;52.160;-0.428;2022-11-20T00:36:07;7.30;99.90
20744;DHT22;56303;52.160;-0.428;2022-11-20T00:38:35;7.30;99.90
20744;DHT22;56303;52.160;-0.428;2022-11-20T00:41:06;7.20;99.90
20744;DHT22;56303;52.160;-0.428;2022-11-20T00:43:33;7.10;99.90
20744;DHT22;56303;52.160;-0.428;2022-11-20T00:46:03;7.10;99.90
20744;DHT22;56303;52.160;-0.428;2022-11-20T00:48:30;7.10;99.90
20744;DHT22;56303;52.160;-0.428;2022-11-20T00:50:57;7.10;99.90
20744;DHT22;56303;52.160;-0.428;2022-11-20T00:53:24;7.20;99.90
20744;DHT22;56303;52.160;-0.428;2022-11-20T00:58:27;7.20;99.90
20744;DHT22;56303;52.160;-0.428;2022-11-20T01:01:00;7.30;99.90
20744;DHT22;56303;52.160;-0.428;2022-11-20T01:03:28;7.20;99.90
20744;DHT22;56303;52.160;-0.428;2022-11-20T01:06:00;7.30;99.90
20744;DHT22;56303;52.160;-0.428;2022-11-20T01:08:32;7.40;99.90
20744;DHT22;56303;52.160;-0.428;2022-11-20T01:11:11;7.40;99.90
20744;DHT22;56303;52.160;-0.428;2022-11-20T01:13:38;7.20;99.90
20744;DHT22;56303;52.160;-0.428;2022-11-20T01:16:20;7.10;99.90
20744;DHT22;56303;52.160;-0.428;2022-11-20T01:18:49;7.30;99.90
20744;DHT22;56303;52.160;-0.428;2022-11-20T01:21:27;7.60;99.90
20744;DHT22;56303;52.160;-0.428;2022-11-20T01:23:55;7.80;99.90
20744;DHT22;56303;52.160;-0.428;2022-11-20T01:26:28;8.10;99.90
20744;DHT22;56303;52.160;-0.428;2022-11-20T01:28:55;8.10;99.90
20744;DHT22;56303;52.160;-0.428;2022-11-20T01:31:24;8.10;99.90
20744;DHT22;56303;52.160;-0.428;2022-11-20T01:33:53;8.30;99.90
20744;DHT22;56303;52.160;-0.428;2022-11-20T01:36:23;8.40;99.90
20744;DHT22;56303;52.160;-0.428;2022-11-20T01:38:54;8.40;99.90
20744;DHT22;56303;52.160;-0.428;2022-11-20T01:41:22;8.30;99.90
20744;DHT22;56303;52.160;-0.428;2022-11-20T01:44:10;8.10;99.90
20744;DHT22;56303;52.160;-0.428;2022-11-20T01:46:40;8.20;99.90
20744;DHT22;56303;52.160;-0.428;2022-11-20T01:49:21;8.40;99.90
20744;DHT22;56303;52.160;-0.428;2022-11-20T01:51:55;8.40;99.90
20744;DHT22;56303;52.160;-0.428;2022-11-20T01:54:34;8.10;99.90
20744;DHT22;56303;52.160;-0.428;2022-11-20T01:57:03;7.70;99.90
20744;DHT22;56303;52.160;-0.428;2022-11-20T01:59:31;7.90;99.90
20744;DHT22;56303;52.160;-0.428;2022-11-20T02:01:58;7.80;99.90
20744;DHT22;56303;52.160;-0.428;2022-11-20T02:04:25;7.60;99.90
20744;DHT22;56303;52.160;-0.428;2022-11-20T02:06:57;7.70;99.90
20744;DHT22;56303;52.160;-0.428;2022-11-20T02:09:26;7.60;99.90
20744;DHT22;56303;52.160;-0.428;2022-11-20T02:11:53;7.40;99.90
20744;DHT22;56303;52.160;-0.428;2022-11-20T02:14:21;7.40;99.90
20744;DHT22;56303;52.160;-0.428;2022-11-20T02:16:49;7.30;99.90
20744;DHT22;56303;52.160;-0.428;2022-11-20T02:19:20;7.50;99.90
20744;DHT22;56303;52.160;-0.428;2022-11-20T02:24:41;7.60;99.90
20744;DHT22;56303;52.160;-0.428;2022-11-20T02:27:11;7.50;99.90
20744;DHT22;56303;52.160;-0.428;2022-11-20T02:29:56;7.60;99.90
20744;DHT22;56303;52.160;-0.428;2022-11-20T02:32:35;7.60;99.90
20744;DHT22;56303;52.160;-0.428;2022-11-20T02:37:48;8.10;99.90
20744;DHT22;56303;52.160;-0.428;2022-11-20T02:40:16;8.30;99.90
20744;DHT22;56303;52.160;-0.428;2022-11-20T02:42:43;8.30;99.90
20744;DHT22;56303;52.160;-0.428;2022-11-20T02:45:10;8.40;99.90
20744;DHT22;56303;52.160;-0.428;2022-11-20T02:47:37;8.60;99.90
20744;DHT22;56303;52.160;-0.428;2022-11-20T02:50:05;8.70;99.90
20744;DHT22;56303;52.160;-0.428;2022-11-20T02:52:32;8.70;99.90
20744;DHT22;56303;52.160;-0.428;2022-11-20T02:54:59;8.80;99.90
20744;DHT22;56303;52.160;-0.428;2022-11-20T02:57:25;8.90;99.90
20744;DHT22;56303;52.160;-0.428;2022-11-20T02:59:52;8.90;99.90
20744;DHT22;56303;52.160;-0.428;2022-11-20T03:02:19;8.90;99.90
20744;DHT22;56303;52.160;-0.428;2022-11-20T03:04:46;8.90;99.90
20744;DHT22;56303;52.160;-0.428;2022-11-20T03:07:13;8.90;99.90
20744;DHT22;56303;52.160;-0.428;2022-11-20T03:09:40;8.90;99.90
20744;DHT22;56303;52.160;-0.428;2022-11-20T03:12:07;8.60;99.90
20744;DHT22;56303;52.160;-0.428;2022-11-20T03:14:34;8.60;99.90
20744;DHT22;56303;52.160;-0.428;2022-11-20T03:17:01;8.60;99.90
20744;DHT22;56303;52.160;-0.428;2022-11-20T03:19:27;8.80;99.90
20744;DHT22;56303;52.160;-0.428;2022-11-20T03:21:54;8.50;99.90
20744;DHT22;56303;52.160;-0.428;2022-11-20T03:24:21;8.50;99.90
20744;DHT22;56303;52.160;-0.428;2022-11-20T03:26:48;8.50;99.90
20744;DHT22;56303;52.160;-0.428;2022-11-20T03:29:14;8.20;99.90
20744;DHT22;56303;52.160;-0.428;2022-11-20T03:31:41;8.00;99.90
20744;DHT22;56303;52.160;-0.428;2022-11-20T03:34:09;7.90;99.90
20744;DHT22;56303;52.160;-0.428;2022-11-20T03:36:38;7.70;99.90
20744;DHT22;56303;52.160;-0.428;2022-11-20T03:39:05;7.70;99.90
20744;DHT22;56303;52.160;-0.428;2022-11-20T03:41:37;7.60;99.90
20744;DHT22;56303;52.160;-0.428;2022-11-20T03:44:05;7.50;99.90
20744;DHT22;56303;52.160;-0.428;2022-11-20T03:46:33;7.50;99.90
20744;DHT22;56303;52.160;-0.428;2022-11-20T03:49:00;7.70;99.90
20744;DHT22;56303;52.160;-0.428;2022-11-20T03:51:30;7.50;99.90
20744;DHT22;56303;52.160;-0.428;2022-11-20T03:54:00;7.70;99.90
20744;DHT22;56303;52.160;-0.428;2022-11-20T03:56:29;7.50;99.90
20744;DHT22;56303;52.160;-0.428;2022-11-20T03:58:57;7.40;99.90
20744;DHT22;56303;52.160;-0.428;2022-11-20T04:01:33;7.30;99.90
20744;DHT22;56303;52.160;-0.428;2022-11-20T04:04:01;7.20;99.90
20744;DHT22;56303;52.160;-0.428;2022-11-20T04:06:35;7.10;99.90
20744;DHT22;56303;52.160;-0.428;2022-11-20T04:09:02;7.10;99.90
20744;DHT22;56303;52.160;-0.428;2022-11-20T04:11:37;7.30;99.90
20744;DHT22;56303;52.160;-0.428;2022-11-20T04:14:11;7.30;99.90
20744;DHT22;56303;52.160;-0.428;2022-11-20T04:16:38;7.60;99.90
20744;DHT22;56303;52.160;-0.428;2022-11-20T04:19:09;7.50;99.90
20744;DHT22;56303;52.160;-0.428;2022-11-20T04:21:37;7.40;99.90
20744;DHT22;56303;52.160;-0.428;2022-11-20T04:24:04;7.60;99.90
20744;DHT22;56303;52.160;-0.428;2022-11-20T04:26:31;7.80;99.90
20744;DHT22;56303;52.160;-0.428;2022-11-20T04:28:58;8.00;99.90
20744;DHT22;56303;52.160;-0.428;2022-11-20T04:31:31;8.20;99.90
20744;DHT22;56303;52.160;-0.428;2022-11-20T04:34:02;8.30;99.90
20744;DHT22;56303;52.160;-0.428;2022-11-20T04:36:30;8.30;99.90
20744;DHT22;56303;52.160;-0.428;2022-11-20T04:38:59;8.30;99.90
20744;DHT22;56303;52.160;-0.428;2022-11-20T04:41:30;8.20;99.90
20744;DHT22;56303;52.160;-0.428;2022-11-20T04:44:00;8.20;99.90
20744;DHT22;56303;52.160;-0.428;2022-11-20T04:46:32;8.10;99.90
20744;DHT22;56303;52.160;-0.428;2022-11-20T04:48:59;8.00;99.90
20744;DHT22;56303;52.160;-0.428;2022-11-20T04:51:27;7.90;99.90
20744;DHT22;56303;52.160;-0.428;2022-11-20T04:53:54;8.00;99.90
20744;DHT22;56303;52.160;-0.428;2022-11-20T04:56:21;8.20;99.90
20744;DHT22;56303;52.160;-0.428;2022-11-20T04:58:48;8.30;99.90
20744;DHT22;56303;52.160;-0.428;2022-11-20T05:01:21;8.30;99.90
20744;DHT22;56303;52.160;-0.428;2022-11-20T05:03:48;8.10;99.90
20744;DHT22;56303;52.160;-0.428;2022-11-20T05:06:19;8.20;99.90
20744;DHT22;56303;52.160;-0.428;2022-11-20T05:08:46;8.30;99.90
20744;DHT22;56303;52.160;-0.428;2022-11-20T05:11:16;8.30;99.90
20744;DHT22;56303;52.160;-0.428;2022-11-20T05:13:43;8.40;99.90
20744;DHT22;56303;52.160;-0.428;2022-11-20T05:16:16;8.10;99.90
20744;DHT22;56303;52.160;-0.428;2022-11-20T05:18:43;8.20;99.90
20744;DHT22;56303;52.160;-0.428;2022-11-20T05:21:12;8.20;99.90
20744;DHT22;56303;52.160;-0.428;2022-11-20T05:23:39;8.30;99.90
20744;DHT22;56303;52.160;-0.428;2022-11-20T05:26:08;8.50;99.90
20744;DHT22;56303;52.160;-0.428;2022-11-20T05:28:38;8.60;99.90
20744;DHT22;56303;52.160;-0.428;2022-11-20T05:31:14;8.40;99.90
20744;DHT22;56303;52.160;-0.428;2022-11-20T05:33:43;8.60;99.90
20744;DHT22;56303;52.160;-0.428;2022-11-20T05:36:11;8.70;99.90
20744;DHT22;56303;52.160;-0.428;2022-11-20T05:38:39;8.80;99.90
20744;DHT22;56303;52.160;-0.428;2022-11-20T05:41:07;8.80;99.90
20744;DHT22;56303;52.160;-0.428;2022-11-20T05:43:35;8.80;99.90
20744;DHT22;56303;52.160;-0.428;2022-11-20T05:46:03;8.70;99.90
20744;DHT22;56303;52.160;-0.428;2022-11-20T05:48:30;8.80;99.90
20744;DHT22;56303;52.160;-0.428;2022-11-20T05:50:58;8.70;99.90
20744;DHT22;56303;52.160;-0.428;2022-11-20T05:53:26;8.80;99.90
20744;DHT22;56303;52.160;-0.428;2022-11-20T05:56:04;8.80;99.90
20744;DHT22;56303;52.160;-0.428;2022-11-20T05:58:33;8.70;99.90
20744;DHT22;56303;52.160;-0.428;2022-11-20T06:01:13;8.60;99.90
20744;DHT22;56303;52.160;-0.428;2022-11-20T06:03:41;8.70;99.90
20744;DHT22;56303;52.160;-0.428;2022-11-20T06:06:14;8.80;99.90
20744;DHT22;56303;52.160;-0.428;2022-11-20T06:08:42;8.90;99.90
20744;DHT22;56303;52.160;-0.428;2022-11-20T06:11:11;9.10;99.90
20744;DHT22;56303;52.160;-0.428;2022-11-20T06:13:38;9.30;99.90
20744;DHT22;56303;52.160;-0.428;2022-11-20T06:16:08;9.00;99.90
20744;DHT22;56303;52.160;-0.428;2022-11-20T06:18:35;9.20;99.90
20744;DHT22;56303;52.160;-0.428;2022-11-20T06:21:11;9.20;99.90
20744;DHT22;56303;52.160;-0.428;2022-11-20T06:23:38;9.30;99.90
20744;DHT22;56303;52.160;-0.428;2022-11-20T06:26:17;10.00;99.90
20744;DHT22;56303;52.160;-0.428;2022-11-20T06:28:44;9.40;99.90
20744;DHT22;56303;52.160;-0.428;2022-11-20T06:31:14;9.40;99.90
20744;DHT22;56303;52.160;-0.428;2022-11-20T06:33:42;9.30;99.90
20744;DHT22;56303;52.160;-0.428;2022-11-20T06:36:11;9.20;99.90
20744;DHT22;56303;52.160;-0.428;2022-11-20T06:38:39;9.30;99.90
20744;DHT22;56303;52.160;-0.428;2022-11-20T06:41:07;9.30;99.90
20744;DHT22;56303;52.160;-0.428;2022-11-20T06:43:36;9.20;99.90
20744;DHT22;56303;52.160;-0.428;2022-11-20T06:46:03;9.00;99.90
20744;DHT22;56303;52.160;-0.428;2022-11-20T06:48:30;9.10;99.90
20744;DHT22;56303;52.160;-0.428;2022-11-20T06:50:57;9.20;99.90
20744;DHT22;56303;52.160;-0.428;2022-11-20T06:53:24;9.30;99.90
20744;DHT22;56303;52.160;-0.428;2022-11-20T06:55:52;9.30;99.90
20744;DHT22;56303;52.160;-0.428;2022-11-20T06:58:19;9.40;99.90
20744;DHT22;56303;52.160;-0.428;2022-11-20T07:00:46;9.40;99.90
20744;DHT22;56303;52.160;-0.428;2022-11-20T07:03:13;9.20;99.90
20744;DHT22;56303;52.160;-0.428;2022-11-20T07:05:40;9.30;99.90
20744;DHT22;56303;52.160;-0.428;2022-11-20T07:08:07;9.30;99.90
20744;DHT22;56303;52.160;-0.428;2022-11-20T07:10:35;9.40;99.90
20744;DHT22;56303;52.160;-0.428;2022-11-20T07:13:01;9.40;99.90
20744;DHT22;56303;52.160;-0.428;2022-11-20T07:15:28;9.50;99.90
20744;DHT22;56303;52.160;-0.428;2022-11-20T07:17:58;9.60;99.90
20744;DHT22;56303;52.160;-0.428;2022-11-20T07:20:24;9.30;99.90
20744;DHT22;56303;52.160;-0.428;2022-11-20T07:22:55;9.20;99.90
20744;DHT22;56303;52.160;-0.428;2022-11-20T07:25:26;9.20;99.90
20744;DHT22;56303;52.160;-0.428;2022-11-20T07:27:57;9.20;99.90
20744;DHT22;56303;52.160;-0.428;2022-11-20T07:30:25;9.10;99.90
20744;DHT22;56303;52.160;-0.428;2022-11-20T07:32:52;9.20;99.90
20744;DHT22;56303;52.160;-0.428;2022-11-20T07:35:20;9.20;99.90
20744;DHT22;56303;52.160;-0.428;2022-11-20T07:37:47;9.20;99.90
20744;DHT22;56303;52.160;-0.428;2022-11-20T07:40:16;9.00;99.90
20744;DHT22;56303;52.160;-0.428;2022-11-20T07:42:53;9.00;99.90
20744;DHT22;56303;52.160;-0.428;2022-11-20T07:45:22;8.90;99.90
20744;DHT22;56303;52.160;-0.428;2022-11-20T07:47:49;8.90;99.90
20744;DHT22;56303;52.160;-0.428;2022-11-20T07:50:17;8.90;99.90
20744;DHT22;56303;52.160;-0.428;2022-11-20T07:52:44;8.80;99.90
20744;DHT22;56303;52.160;-0.428;2022-11-20T07:55:11;8.80;99.90
20744;DHT22;56303;52.160;-0.428;2022-11-20T07:57:38;8.90;99.90
20744;DHT22;56303;52.160;-0.428;2022-11-20T08:00:06;8.80;99.90
20744;DHT22;56303;52.160;-0.428;2022-11-20T08:02:39;8.90;99.90
20744;DHT22;56303;52.160;-0.428;2022-11-20T08:05:08;8.80;99.90
20744;DHT22;56303;52.160;-0.428;2022-11-20T08:07:39;8.80;99.90
20744;DHT22;56303;52.160;-0.428;2022-11-20T08:10:09;8.90;99.90
20744;DHT22;56303;52.160;-0.428;2022-11-20T08:12:36;8.80;99.90
20744;DHT22;56303;52.160;-0.428;2022-11-20T08:15:21;8.90;99.90
20744;DHT22;56303;52.160;-0.428;2022-11-20T08:17:48;8.80;99.90
20744;DHT22;56303;52.160;-0.428;2022-11-20T08:20:35;9.00;99.90
20744;DHT22;56303;52.160;-0.428;2022-11-20T08:23:04;8.80;99.90
20744;DHT22;56303;52.160;-0.428;2022-11-20T08:25:33;8.60;99.90
20744;DHT22;56303;52.160;-0.428;2022-11-20T08:28:03;8.80;99.90
20744;DHT22;56303;52.160;-0.428;2022-11-20T08:30:45;8.70;99.90
20744;DHT22;56303;52.160;-0.428;2022-11-20T08:33:12;8.70;99.90
20744;DHT22;56303;52.160;-0.428;2022-11-20T08:35:39;8.80;99.90
20744;DHT22;56303;52.160;-0.428;2022-11-20T08:38:08;8.90;99.90
20744;DHT22;56303;52.160;-0.428;2022-11-20T08:40:35;9.00;99.90
20744;DHT22;56303;52.160;-0.428;2022-11-20T08:43:02;9.10;99.90
20744;DHT22;56303;52.160;-0.428;2022-11-20T08:45:29;9.10;99.90
20744;DHT22;56303;52.160;-0.428;2022-11-20T08:48:04;8.90;99.90
20744;DHT22;56303;52.160;-0.428;2022-11-20T08:50:31;9.00;99.90
20744;DHT22;56303;52.160;-0.428;2022-11-20T08:53:03;8.90;99.90
20744;DHT22;56303;52.160;-0.428;2022-11-20T08:55:31;8.90;99.90
20744;DHT22;56303;52.160;-0.428;2022-11-20T08:57:57;8.90;99.90
20744;DHT22;56303;52.160;-0.428;2022-11-20T09:00:24;9.00;99.90
20744;DHT22;56303;52.160;-0.428;2022-11-20T09:02:51;8.90;99.90
20744;DHT22;56303;52.160;-0.428;2022-11-20T09:05:18;8.90;99.90
20744;DHT22;56303;52.160;-0.428;2022-11-20T09:07:45;9.10;99.90
20744;DHT22;56303;52.160;-0.428;2022-11-20T09:10:12;9.30;99.90
20744;DHT22;56303;52.160;-0.428;2022-11-20T09:12:54;9.30;99.90
20744;DHT22;56303;52.160;-0.428;2022-11-20T09:15:22;9.30;99.90
20744;DHT22;56303;52.160;-0.428;2022-11-20T09:18:00;9.30;99.90
20744;DHT22;56303;52.160;-0.428;2022-11-20T09:20:28;9.10;99.90
20744;DHT22;56303;52.160;-0.428;2022-11-20T09:22:57;9.20;99.90
20744;DHT22;56303;52.160;-0.428;2022-11-20T09:25:24;9.10;99.90
20744;DHT22;56303;52.160;-0.428;2022-11-20T09:27:58;9.20;99.90
20744;DHT22;56303;52.160;-0.428;2022-11-20T09:30:26;9.20;99.90
20744;DHT22;56303;52.160;-0.428;2022-11-20T09:32:54;9.30;99.90
20744;DHT22;56303;52.160;-0.428;2022-11-20T09:35:20;9.40;99.90
20744;DHT22;56303;52.160;-0.428;2022-11-20T09:37:48;9.30;99.90
20744;DHT22;56303;52.160;-0.428;2022-11-20T09:42:49;9.50;99.90
20744;DHT22;56303;52.160;-0.428;2022-11-20T09:45:39;9.50;99.90
20744;DHT22;56303;52.160;-0.428;2022-11-20T09:56:26;9.70;99.90
20744;DHT22;56303;52.160;-0.428;2022-11-20T09:58:55;9.90;99.90
20744;DHT22;56303;52.160;-0.428;2022-11-20T10:01:29;9.70;99.90
20744;DHT22;56303;52.160;-0.428;2022-11-20T10:04:06;9.80;99.90
20744;DHT22;56303;52.160;-0.428;2022-11-20T10:07:04;10.00;99.90
20744;DHT22;56303;52.160;-0.428;2022-11-20T10:09:55;9.80;99.90
20744;DHT22;56303;52.160;-0.428;2022-11-20T10:12:34;9.80;99.90
20744;DHT22;56303;52.160;-0.428;2022-11-20T10:18:09;10.10;99.90
20744;DHT22;56303;52.160;-0.428;2022-11-20T10:20:46;9.90;99.90
20744;DHT22;56303;52.160;-0.428;2022-11-20T10:31:41;10.10;99.90
20744;DHT22;56303;52.160;-0.428;2022-11-20T10:34:54;10.20;99.90
20744;DHT22;56303;52.160;-0.428;2022-11-20T10:37:25;10.10;99.90
20744;DHT22;56303;52.160;-0.428;2022-11-20T10:40:21;10.30;99.90
20744;DHT22;56303;52.160;-0.428;2022-11-20T10:42:59;10.20;99.90
20744;DHT22;56303;52.160;-0.428;2022-11-20T10:45:40;9.90;99.90
20744;DHT22;56303;52.160;-0.428;2022-11-20T10:48:16;10.10;99.90
20744;DHT22;56303;52.160;-0.428;2022-11-20T10:50:54;10.20;99.90
20744;DHT22;56303;52.160;-0.428;2022-11-20T10:56:30;10.30;99.90
20744;DHT22;56303;52.160;-0.428;2022-11-20T10:59:26;10.30;99.90
20744;DHT22;56303;52.160;-0.428;2022-11-20T11:01:54;10.30;99.90
20744;DHT22;56303;52.160;-0.428;2022-11-20T11:06:51;10.20;99.90
20744;DHT22;56303;52.160;-0.428;2022-11-20T11:09:34;10.70;99.90
20744;DHT22;56303;52.160;-0.428;2022-11-20T11:12:06;10.80;99.90
20744;DHT22;56303;52.160;-0.428;2022-11-20T11:14:48;11.00;99.90
20744;DHT22;56303;52.160;-0.428;2022-11-20T11:22:31;11.00;99.90
20744;DHT22;56303;52.160;-0.428;2022-11-20T11:24:59;10.90;99.90
20744;DHT22;56303;52.160;-0.428;2022-11-20T11:27:26;10.90;99.90
20744;DHT22;56303;52.160;-0.428;2022-11-20T11:30:14;11.10;99.90
20744;DHT22;56303;52.160;-0.428;2022-11-20T11:32:41;11.10;99.90
20744;DHT22;56303;52.160;-0.428;2022-11-20T11:35:28;11.10;99.90
20744;DHT22;56303;52.160;-0.428;2022-11-20T11:38:16;11.70;99.90
20744;DHT22;56303;52.160;-0.428;2022-11-20T11:40:44;12.20;99.90
20744;DHT22;56303;52.160;-0.428;2022-11-20T11:43:28;12.50;99.90
20744;DHT22;56303;52.160;-0.428;2022-11-20T11:46:33;12.30;99.90
20744;DHT22;56303;52.160;-0.428;2022-11-20T11:49:15;12.50;99.90
20744;DHT22;56303;52.160;-0.428;2022-11-20T11:52:04;12.80;99.90
20744;DHT22;56303;52.160;-0.428;2022-11-20T12:00:03;12.80;99.90
20744;DHT22;56303;52.160;-0.428;2022-11-20T12:02:38;13.10;99.90
20744;DHT22;56303;52.160;-0.428;2022-11-20T12:10:20;12.40;99.90
20744;DHT22;56303;52.160;-0.428;2022-11-20T12:13:12;12.10;99.90
20744;DHT22;56303;52.160;-0.428;2022-11-20T12:15:44;12.30;99.90
20744;DHT22;56303;52.160;-0.428;2022-11-20T12:18:18;12.40;99.90
20744;DHT22;56303;52.160;-0.428;2022-11-20T12:23:28;12.60;99.90
20744;DHT22;56303;52.160;-0.428;2022-11-20T12:26:06;12.60;99.90
20744;DHT22;56303;52.160;-0.428;2022-11-20T12:28:52;12.60;99.90
20744;DHT22;56303;52.160;-0.428;2022-11-20T12:37:27;13.10;99.90
20744;DHT22;56303;52.160;-0.428;2022-11-20T12:40:02;13.10;99.90
20744;DHT22;56303;52.160;-0.428;2022-11-20T12:42:42;13.00;99.90
20744;DHT22;56303;52.160;-0.428;2022-11-20T13:00:09;13.90;99.90
20744;DHT22;56303;52.160;-0.428;2022-11-20T13:02:48;13.80;99.90
20744;DHT22;56303;52.160;-0.428;2022-11-20T13:08:20;14.20;99.90
20744;DHT22;56303;52.160;-0.428;2022-11-20T13:10:56;14.10;99.90
20744;DHT22;56303;52.160;-0.428;2022-11-20T13:19:16;13.20;99.90
20744;DHT22;56303;52.160;-0.428;2022-11-20T13:21:45;13.70;99.90
20744;DHT22;56303;52.160;-0.428;2022-11-20T13:26:47;14.20;99.90
20744;DHT22;56303;52.160;-0.428;2022-11-20T13:29:18;14.30;99.90
20744;DHT22;56303;52.160;-0.428;2022-11-20T13:31:47;14.20;99.90
20744;DHT22;56303;52.160;-0.428;2022-11-20T13:34:24;13.90;99.90
20744;DHT22;56303;52.160;-0.428;2022-11-20T13:36:54;13.80;99.90
20744;DHT22;56303;52.160;-0.428;2022-11-20T13:39:33;13.20;99.90
20744;DHT22;56303;52.160;-0.428;2022-11-20T13:42:23;13.10;99.90
20744;DHT22;56303;52.160;-0.428;2022-11-20T13:44:54;13.00;99.90
20744;DHT22;56303;52.160;-0.428;2022-11-20T13:47:27;13.20;99.90
20744;DHT22;56303;52.160;-0.428;2022-11-20T13:49:57;13.50;99.90
20744;DHT22;56303;52.160;-0.428;2022-11-20T13:55:46;13.10;99.90
20744;DHT22;56303;52.160;-0.428;2022-11-20T14:01:30;12.30;99.90
20744;DHT22;56303;52.160;-0.428;2022-11-20T14:04:07;11.90;99.90
20744;DHT22;56303;52.160;-0.428;2022-11-20T14:06:45;12.00;99.90
20744;DHT22;56303;52.160;-0.428;2022-11-20T14:09:27;11.90;99.90
20744;DHT22;56303;52.160;-0.428;2022-11-20T14:11:54;11.80;99.90
20744;DHT22;56303;52.160;-0.428;2022-11-20T14:14:23;11.60;99.90
20744;DHT22;56303;52.160;-0.428;2022-11-20T14:16:52;11.70;99.90
20744;DHT22;56303;52.160;-0.428;2022-11-20T14:21:54;12.00;99.90
20744;DHT22;56303;52.160;-0.428;2022-11-20T14:24:23;12.10;99.90
20744;DHT22;56303;52.160;-0.428;2022-11-20T14:26:51;12.20;99.90
20744;DHT22;56303;52.160;-0.428;2022-11-20T14:29:21;12.30;99.90
20744;DHT22;56303;52.160;-0.428;2022-11-20T14:31:52;12.20;99.90
20744;DHT22;56303;52.160;-0.428;2022-11-20T14:34:29;12.30;99.90
20744;DHT22;56303;52.160;-0.428;2022-11-20T14:37:01;12.20;99.90
20744;DHT22;56303;52.160;-0.428;2022-11-20T14:39:33;12.00;99.90
20744;DHT22;56303;52.160;-0.428;2022-11-20T14:42:00;11.80;99.90
20744;DHT22;56303;52.160;-0.428;2022-11-20T14:44:32;12.00;99.90
20744;DHT22;56303;52.160;-0.428;2022-11-20T14:47:01;12.10;99.90
20744;DHT22;56303;52.160;-0.428;2022-11-20T14:49:31;12.00;99.90
20744;DHT22;56303;52.160;-0.428;2022-11-20T14:52:10;12.00;99.90
20744;DHT22;56303;52.160;-0.428;2022-11-20T14:54:49;12.00;99.90
20744;DHT22;56303;52.160;-0.428;2022-11-20T14:57:31;11.80;99.90
20744;DHT22;56303;52.160;-0.428;2022-11-20T15:00:19;11.80;99.90
20744;DHT22;56303;52.160;-0.428;2022-11-20T15:02:48;11.70;99.90
20744;DHT22;56303;52.160;-0.428;2022-11-20T15:05:17;11.50;99.90
20744;DHT22;56303;52.160;-0.428;2022-11-20T15:07:50;11.40;99.90
20744;DHT22;56303;52.160;-0.428;2022-11-20T15:10:23;11.40;99.90
20744;DHT22;56303;52.160;-0.428;2022-11-20T15:12:52;11.50;99.90
20744;DHT22;56303;52.160;-0.428;2022-11-20T15:15:36;11.50;99.90
20744;DHT22;56303;52.160;-0.428;2022-11-20T15:18:09;11.50;99.90
20744;DHT22;56303;52.160;-0.428;2022-11-20T15:20:37;11.50;99.90
20744;DHT22;56303;52.160;-0.428;2022-11-20T15:23:10;11.40;99.90
20744;DHT22;56303;52.160;-0.428;2022-11-20T15:25:39;11.40;99.90
20744;DHT22;56303;52.160;-0.428;2022-11-20T15:30:42;11.20;99.90
20744;DHT22;56303;52.160;-0.428;2022-11-20T15:33:09;10.90;99.90
20744;DHT22;56303;52.160;-0.428;2022-11-20T15:35:36;11.00;99.90
20744;DHT22;56303;52.160;-0.428;2022-11-20T15:38:03;10.80;99.90
20744;DHT22;56303;52.160;-0.428;2022-11-20T15:40:31;10.70;99.90
20744;DHT22;56303;52.160;-0.428;2022-11-20T15:42:57;10.50;99.90
20744;DHT22;56303;52.160;-0.428;2022-11-20T15:45:40;10.60;99.90
20744;DHT22;56303;52.160;-0.428;2022-11-20T15:48:16;10.60;99.90
20744;DHT22;56303;52.160;-0.428;2022-11-20T15:53:38;10.90;99.90
20744;DHT22;56303;52.160;-0.428;2022-11-20T15:56:11;11.10;99.90
20744;DHT22;56303;52.160;-0.428;2022-11-20T15:58:38;11.20;99.90
20744;DHT22;56303;52.160;-0.428;2022-11-20T16:01:09;11.10;99.90
20744;DHT22;56303;52.160;-0.428;2022-11-20T16:03:36;11.20;99.90
20744;DHT22;56303;52.160;-0.428;2022-11-20T16:06:03;11.40;99.90
20744;DHT22;56303;52.160;-0.428;2022-11-20T16:08:30;10.90;99.90
20744;DHT22;56303;52.160;-0.428;2022-11-20T16:10:56;11.10;99.90
20744;DHT22;56303;52.160;-0.428;2022-11-20T16:13:23;11.10;99.90
20744;DHT22;56303;52.160;-0.428;2022-11-20T16:16:24;10.90;99.90
20744;DHT22;56303;52.160;-0.428;2022-11-20T16:18:54;10.80;99.90
20744;DHT22;56303;52.160;-0.428;2022-11-20T16:21:21;10.70;99.90
20744;DHT22;56303;52.160;-0.428;2022-11-20T16:24:01;10.90;99.90
20744;DHT22;56303;52.160;-0.428;2022-11-20T16:26:29;10.60;99.90
20744;DHT22;56303;52.160;-0.428;2022-11-20T16:28:58;10.60;99.90
20744;DHT22;56303;52.160;-0.428;2022-11-20T16:31:25;10.50;99.90
20744;DHT22;56303;52.160;-0.428;2022-11-20T16:33:54;10.70;99.90
20744;DHT22;56303;52.160;-0.428;2022-11-20T16:36:23;10.70;99.90
20744;DHT22;56303;52.160;-0.428;2022-11-20T16:38:55;10.60;99.90
20744;DHT22;56303;52.160;-0.428;2022-11-20T16:41:22;10.10;99.90
20744;DHT22;56303;52.160;-0.428;2022-11-20T16:43:51;10.00;99.90
20744;DHT22;56303;52.160;-0.428;2022-11-20T16:46:20;10.10;99.90
20744;DHT22;56303;52.160;-0.428;2022-11-20T16:48:55;10.10;99.90
20744;DHT22;56303;52.160;-0.428;2022-11-20T16:51:24;9.80;99.90
20744;DHT22;56303;52.160;-0.428;2022-11-20T16:53:51;9.80;99.90
20744;DHT22;56303;52.160;-0.428;2022-11-20T16:56:21;9.60;99.90
20744;DHT22;56303;52.160;-0.428;2022-11-20T16:58:49;9.60;99.90
20744;DHT22;56303;52.160;-0.428;2022-11-20T17:01:19;9.70;99.90
20744;DHT22;56303;52.160;-0.428;2022-11-20T17:03:55;9.80;99.90
20744;DHT22;56303;52.160;-0.428;2022-11-20T17:06:25;9.40;99.90
20744;DHT22;56303;52.160;-0.428;2022-11-20T17:08:55;9.50;99.90
20744;DHT22;56303;52.160;-0.428;2022-11-20T17:11:24;9.60;99.90
20744;DHT22;56303;52.160;-0.428;2022-11-20T17:13:51;9.60;99.90
20744;DHT22;56303;52.160;-0.428;2022-11-20T17:16:21;9.40;99.90
20744;DHT22;56303;52.160;-0.428;2022-11-20T17:18:49;9.40;99.90
20744;DHT22;56303;52.160;-0.428;2022-11-20T17:21:17;9.10;99.90
20744;DHT22;56303;52.160;-0.428;2022-11-20T17:23:45;9.10;99.90
20744;DHT22;56303;52.160;-0.428;2022-11-20T17:26:14;9.00;99.90
20744;DHT22;56303;52.160;-0.428;2022-11-20T17:28:52;8.90;99.90
20744;DHT22;56303;52.160;-0.428;2022-11-20T17:31:19;9.00;99.90